Jump to content

  •  

DELTA AIRLINES FLIGHT DL444 FLOWN ON 01-12-2018 BY CAPTAIN JIM BOERMAN

Pilot StatsCaptain Jim Boerman (LDP136) • 4,772.1 total hours • 1,444 total flights [View Logbook]
FLIGHT DETAILS
StatusReceived and approved on 2018-01-12 at 18:01:50
Origin AirportKennedy Intl (KJFK) • New York, New York, United States (13 feet MSL)
Filed Flight PlanKJFK LLUND J42 BOS J575 TUSKY N177D JOOPY NATY XETBO RATKA UN512 BERAD UN490 TERPO UM616 NTS UP860 BEBIX UM616 LERGA UT183 OTROT UQ215 BTA UM728 KISTO UQ160 MEDAL UM729 RAVAL LIRF
Destination AirportFiumicino (LIRF) • Rome, Italy (14 feet MSL)
Alternate AirportGrazzanise Mil (LIRM) • Grazzanise, Italy (29 feet MSL)
AirlineDelta Airlines
AircraftBoeing 777-200LR (77L / B777-200LR)
FS Aircraft UsedPMDG 777-232LR Delta Air Lines
Cruising AltitudeFL350
Distance Flown3,708 nautical miles
Passengers Onboard271 passengers (90.03% full)
DEPARTURE DETAILS
Time Out10:25:59
Taxi Data523,348 lbs total with 124,424 lbs of fuel onboard
Takeoff Data10:42:31 (17 minutes after leaving gate/ramp) • 521,218 lbs total • 11° pitch at 158 knots
Departure METARKJFK 121351Z 17014KT 1/4SM R04R/0800V1400FT FG VV002 10/10 A2997 RMK AO2 RAB07E48 SLP150 P0001 T01000100
ARRIVAL DETAILS
Landing Data00:37:00 • 413,206 lbs total • 1° pitch doing 135 knots at a rate of -219.92 feet/minute with 13,111 lbs of fuel onboard
Time In00:50:29 (13 minutes after landing)
Ramp Weight412,035 lbs total
Total Fuel Used111,313 lbs
Total Block Time08:24:20 (8.4 hours) while 30 minutes were spent on the ground
Arrival METARLIRF 122320Z 04006KT CAVOK 07/02 Q1016 NOSIG
MISCELLANEOUS DETAILS
LiveDISPATCH Version4.8.3.1
FS Version
FSUIPC Version5.12
OS VersionWindows 7 32-bit
Screen Resolution1920 x 1080
Pilot's CommentsNo Comments Reported
FLIGHT MAP